Golconda, Illinois
Current Conditions -  °F | °C
As of 9:55 PM on Thursday 18 Dec 2014 (Local Time) from KM30 Reporting Station
Haze Haze  
Wind Chill: 35°   Ceiling: 2300
Heat Index: 35°   Visibility: 5mi
Dew Point: 35°   Wind: 3mph
Humidity: 99%   Direction: 10°N
Pressure: 30.27"   Gusts: NA
Location:  37.37°N, 88.49°W
Report Text: KM30 190355Z AUTO 01003KT 5SM BR BKN023 OVC065 02/02 A3027 RMK AO2 T00160015
Loading
Personal Weather Stations






























Interactive Weather Map New forecast layout! Learn more

10-Day Weather Forecast

Advertisements
Track Severe Weather on mobile